Time;durP1;ratioP1;P1;durP2;ratioP2;P2;SDS_P1;SDS_P2;PMS_P1;PMS_P2;Temp;Humidity;BMP_temperature;BMP_pressure;BME280_temperature;BME280_humidity;BME280_pressure;Samples;Min_cycle;Max_cycle;Signal;HPM_P1;HPM_P2
2024/01/19 00:00:44;;;;;;;2.63;2.53;;;;;;;0.48;100.00;95146.63;5083443;28;20044;-68
2024/01/19 00:03:09;;;;;;;2.58;2.47;;;;;;;0.48;100.00;95148.41;5093194;28;20013;-68
2024/01/19 00:05:35;;;;;;;10.32;8.25;;;;;;;0.51;100.00;95148.22;5080997;28;20560;-69
2024/01/19 00:08:00;;;;;;;4.22;3.92;;;;;;;0.50;100.00;95157.72;5087686;28;20095;-69
2024/01/19 00:10:26;;;;;;;2.85;2.67;;;;;;;0.45;100.00;95162.38;5089791;28;20031;-69
2024/01/19 00:12:51;;;;;;;4.97;4.57;;;;;;;0.52;100.00;95162.81;5090856;28;20026;-69
2024/01/19 00:15:17;;;;;;;6.45;5.85;;;;;;;0.48;100.00;95169.94;5076628;28;20032;-69
2024/01/19 00:17:42;;;;;;;3.65;3.35;;;;;;;0.61;100.00;95172.63;5103770;28;20573;-69
2024/01/19 00:20:09;;;;;;;9.18;7.10;;;;;;;0.51;100.00;95187.88;5097762;28;20466;-69
2024/01/19 00:22:34;;;;;;;6.85;3.88;;;;;;;0.54;100.00;95203.25;5103852;28;20051;-69
2024/01/19 00:24:59;;;;;;;4.35;3.63;;;;;;;0.49;100.00;95200.09;5064033;28;20119;-69
2024/01/19 00:27:25;;;;;;;4.25;3.75;;;;;;;0.48;100.00;95207.97;5088098;28;20032;-69
2024/01/19 00:29:50;;;;;;;1.73;1.65;;;;;;;0.43;100.00;95218.59;5088994;28;20173;-69
2024/01/19 00:32:16;;;;;;;4.22;3.80;;;;;;;0.47;100.00;95221.84;5089297;28;20036;-69
2024/01/19 00:34:41;;;;;;;2.75;2.55;;;;;;;0.51;100.00;95229.34;5082549;28;20048;-69
2024/01/19 00:37:07;;;;;;;2.85;2.65;;;;;;;0.51;100.00;95236.28;5083090;28;20140;-69
2024/01/19 00:39:32;;;;;;;1.70;1.60;;;;;;;0.52;100.00;95233.59;5088984;28;20031;-69
2024/01/19 00:41:58;;;;;;;5.15;3.83;;;;;;;0.51;100.00;95244.88;5088245;28;20505;-69
2024/01/19 00:44:23;;;;;;;9.27;6.80;;;;;;;0.46;100.00;95257.28;5086311;28;20107;-69
2024/01/19 00:46:50;;;;;;;11.68;7.65;;;;;;;0.48;100.00;95259.78;5061364;28;20027;-69
2024/01/19 00:49:15;;;;;;;3.08;2.78;;;;;;;0.38;100.00;95269.84;5092219;28;20103;-69
2024/01/19 00:51:41;;;;;;;8.30;5.57;;;;;;;0.40;100.00;95268.81;5088425;28;20081;-69
2024/01/19 00:54:07;;;;;;;2.75;2.55;;;;;;;0.30;100.00;95269.44;5091354;28;20107;-69
2024/01/19 00:56:33;;;;;;;1.77;1.77;;;;;;;0.36;100.00;95276.88;5089128;28;20110;-69
2024/01/19 00:58:58;;;;;;;1.70;1.70;;;;;;;0.30;100.00;95285.00;5093126;28;20107;-69
2024/01/19 01:01:23;;;;;;;2.03;1.92;;;;;;;0.27;100.00;95289.44;5085861;28;20032;-68
2024/01/19 01:03:49;;;;;;;1.90;1.80;;;;;;;0.24;100.00;95294.78;5096562;28;20073;-69
2024/01/19 01:06:14;;;;;;;1.80;1.80;;;;;;;0.22;100.00;95301.81;5092164;28;20416;-69
2024/01/19 01:08:40;;;;;;;2.22;2.13;;;;;;;0.14;100.00;95311.78;5089668;28;20032;-69
2024/01/19 01:11:05;;;;;;;2.00;1.90;;;;;;;0.13;100.00;95325.66;5092218;28;20431;-69
2024/01/19 01:13:31;;;;;;;2.28;2.00;;;;;;;0.11;100.00;95330.06;5060152;28;20504;-69
2024/01/19 01:15:57;;;;;;;3.05;1.92;;;;;;;0.08;100.00;95345.75;5091097;28;20012;-69
2024/01/19 01:18:22;;;;;;;2.67;2.47;;;;;;;0.19;100.00;95347.75;5091512;28;20117;-68
2024/01/19 01:20:50;;;;;;;2.30;2.20;;;;;;;0.08;100.00;95350.94;5093678;28;20448;-69
2024/01/19 01:23:15;;;;;;;2.03;1.92;;;;;;;0.06;100.00;95355.38;5093986;28;20044;-69
2024/01/19 01:25:41;;;;;;;3.38;3.17;;;;;;;0.11;100.00;95349.03;5083102;28;20029;-69
2024/01/19 01:28:06;;;;;;;2.22;2.05;;;;;;;0.10;100.00;95349.09;5095999;28;20909;-69
2024/01/19 01:30:31;;;;;;;1.90;1.85;;;;;;;0.16;100.00;95351.38;5080049;28;20032;-69
2024/01/19 01:32:57;;;;;;;2.97;2.78;;;;;;;0.13;100.00;95359.31;5084809;28;20107;-69
2024/01/19 01:35:22;;;;;;;3.40;3.20;;;;;;;0.16;100.00;95361.72;5087999;28;20024;-69
2024/01/19 01:37:48;;;;;;;2.65;2.55;;;;;;;0.20;100.00;95365.81;5087019;28;20020;-69
2024/01/19 01:40:14;;;;;;;2.03;1.92;;;;;;;0.26;100.00;95365.44;5093074;28;20020;-69
2024/01/19 01:42:39;;;;;;;2.90;2.70;;;;;;;0.19;100.00;95368.47;5089646;28;20461;-69
2024/01/19 01:45:05;;;;;;;2.38;2.28;;;;;;;0.20;100.00;95370.13;5093965;28;20020;-69
2024/01/19 01:47:31;;;;;;;1.70;1.70;;;;;;;0.33;100.00;95372.84;5092472;28;20556;-69
2024/01/19 01:49:56;;;;;;;1.92;1.90;;;;;;;0.27;100.00;95380.06;5084851;28;20077;-69
2024/01/19 01:52:22;;;;;;;2.58;2.38;;;;;;;0.28;100.00;95386.09;5089891;28;20027;-68
2024/01/19 01:54:48;;;;;;;2.65;2.55;;;;;;;0.27;100.00;95392.19;5085737;28;20028;-69
2024/01/19 01:57:15;;;;;;;2.30;2.20;;;;;;;0.25;100.00;95397.44;5081572;28;20078;-69
2024/01/19 01:59:43;;;;;;;2.00;1.90;;;;;;;0.22;100.00;95396.78;5081579;28;20027;-69
2024/01/19 02:02:09;;;;;;;1.90;1.80;;;;;;;0.19;100.00;95387.44;5067176;28;20122;-69
2024/01/19 02:04:34;;;;;;;2.20;2.10;;;;;;;0.14;100.00;95397.22;5090298;28;20051;-68
2024/01/19 02:07:00;;;;;;;2.30;2.20;;;;;;;0.17;100.00;95401.38;5079109;28;20111;-69
2024/01/19 02:09:26;;;;;;;1.95;1.85;;;;;;;0.23;100.00;95396.69;5086923;28;20103;-68
2024/01/19 02:11:52;;;;;;;2.17;2.08;;;;;;;0.25;100.00;95405.22;5085564;28;20024;-68
2024/01/19 02:14:17;;;;;;;1.65;1.65;;;;;;;0.24;100.00;95406.13;5078431;28;20016;-68
2024/01/19 02:16:43;;;;;;;2.00;1.90;;;;;;;0.27;100.00;95418.09;5095746;28;20026;-69
2024/01/19 02:19:08;;;;;;;2.22;1.80;;;;;;;0.30;100.00;95410.13;5088781;28;20020;-68
2024/01/19 02:21:34;;;;;;;1.95;1.85;;;;;;;0.23;100.00;95412.22;5092911;28;20102;-68
2024/01/19 02:24:01;;;;;;;1.60;1.60;;;;;;;0.36;100.00;95406.38;5091587;28;20059;-69
2024/01/19 02:26:31;;;;;;;1.70;1.70;;;;;;;0.40;100.00;95418.22;5090006;28;20481;-68
2024/01/19 02:28:56;;;;;;;2.45;2.35;;;;;;;0.54;100.00;95415.66;5087869;28;20059;-68
2024/01/19 02:31:22;;;;;;;1.63;1.60;;;;;;;0.37;100.00;95431.34;5075597;28;20027;-68
2024/01/19 02:33:47;;;;;;;1.50;1.50;;;;;;;0.36;100.00;95437.47;5095152;28;20491;-69
2024/01/19 02:36:13;;;;;;;1.98;1.88;;;;;;;0.37;100.00;95444.31;5082684;28;20534;-69
2024/01/19 02:38:38;;;;;;;2.15;2.05;;;;;;;0.27;100.00;95444.78;5090441;28;20107;-68
2024/01/19 02:41:03;;;;;;;2.05;1.92;;;;;;;0.21;100.00;95455.50;5088153;28;20024;-69
2024/01/19 02:43:29;;;;;;;2.65;2.35;;;;;;;0.19;100.00;95451.31;5092094;28;20059;-68
2024/01/19 02:45:54;;;;;;;2.50;2.30;;;;;;;0.18;100.00;95442.72;5090695;28;20855;-69
2024/01/19 02:48:19;;;;;;;2.75;2.55;;;;;;;0.20;100.00;95445.22;5083729;28;20020;-69
2024/01/19 02:50:45;;;;;;;2.17;2.08;;;;;;;0.24;100.00;95441.56;5091103;28;20020;-69
2024/01/19 02:53:10;;;;;;;2.03;1.92;;;;;;;0.25;100.00;95440.66;5083572;28;20024;-68
2024/01/19 02:55:36;;;;;;;2.58;2.47;;;;;;;0.31;100.00;95444.63;5092150;28;20107;-69
2024/01/19 02:58:01;;;;;;;2.30;2.20;;;;;;;0.28;100.00;95440.47;5082499;28;20049;-69
2024/01/19 03:00:27;;;;;;;2.55;2.35;;;;;;;0.26;100.00;95448.31;5086853;28;20023;-69
2024/01/19 03:02:52;;;;;;;2.22;2.13;;;;;;;0.24;100.00;95449.34;5085591;28;20039;-69
2024/01/19 03:05:17;;;;;;;2.45;2.25;;;;;;;0.23;100.00;95452.84;5099574;28;20066;-69
2024/01/19 03:07:43;;;;;;;1.95;1.90;;;;;;;0.24;100.00;95450.16;5082331;28;20020;-69
2024/01/19 03:10:08;;;;;;;1.98;1.88;;;;;;;0.22;100.00;95452.00;5080173;28;20020;-69
2024/01/19 03:12:33;;;;;;;3.00;2.20;;;;;;;0.16;100.00;95456.66;5089770;28;20288;-69
2024/01/19 03:14:59;;;;;;;1.90;1.85;;;;;;;0.26;100.00;95434.53;5082684;28;20108;-69
2024/01/19 03:17:27;;;;;;;2.33;2.22;;;;;;;0.18;100.00;95432.38;5086581;28;20027;-69
2024/01/19 03:19:52;;;;;;;3.03;2.20;;;;;;;0.20;100.00;95429.69;5093078;28;20698;-69
2024/01/19 03:22:17;;;;;;;2.50;2.40;;;;;;;0.24;100.00;95429.44;5092831;28;20040;-69
2024/01/19 03:24:43;;;;;;;2.53;2.42;;;;;;;0.19;100.00;95425.44;5080338;28;20511;-69
2024/01/19 03:27:08;;;;;;;2.92;2.72;;;;;;;0.20;100.00;95419.31;5079451;28;20502;-69
2024/01/19 03:29:34;;;;;;;2.60;2.50;;;;;;;0.23;100.00;95416.59;5084504;28;20026;-69
2024/01/19 03:31:59;;;;;;;3.05;2.85;;;;;;;0.22;100.00;95415.75;5083668;28;20024;-69
2024/01/19 03:34:25;;;;;;;2.97;2.78;;;;;;;0.20;100.00;95417.59;5091710;28;20032;-69
2024/01/19 03:36:51;;;;;;;3.08;2.90;;;;;;;0.26;100.00;95421.59;5094228;28;20043;-69
2024/01/19 03:39:17;;;;;;;2.78;2.67;;;;;;;0.24;100.00;95426.84;5093842;28;20020;-69
2024/01/19 03:41:43;;;;;;;3.03;2.83;;;;;;;0.33;100.00;95422.91;5088880;28;20028;-69
2024/01/19 03:44:08;;;;;;;2.80;2.60;;;;;;;0.27;100.00;95434.44;5086817;28;20073;-69
2024/01/19 03:46:34;;;;;;;3.67;3.38;;;;;;;0.25;100.00;95441.47;5080369;28;20028;-69
2024/01/19 03:48:59;;;;;;;2.63;2.53;;;;;;;0.32;100.00;95435.94;5088046;28;20017;-69
2024/01/19 03:51:24;;;;;;;3.10;2.92;;;;;;;0.24;100.00;95431.22;5083312;28;20028;-69
2024/01/19 03:53:50;;;;;;;2.50;2.40;;;;;;;0.20;100.00;95446.06;5094631;28;20095;-69
2024/01/19 03:56:16;;;;;;;2.92;2.83;;;;;;;0.16;100.00;95441.97;5092393;28;20013;-69
2024/01/19 03:58:41;;;;;;;5.30;4.80;;;;;;;0.24;100.00;95441.56;5086293;28;20047;-69
2024/01/19 04:01:07;;;;;;;9.70;8.18;;;;;;;0.20;100.00;95459.00;5059246;28;20021;-69
2024/01/19 04:03:33;;;;;;;3.17;2.97;;;;;;;0.10;100.00;95463.00;5090061;28;20034;-69
2024/01/19 04:05:59;;;;;;;3.33;3.13;;;;;;;0.07;100.00;95463.19;5085240;28;20020;-69
2024/01/19 04:08:26;;;;;;;2.92;2.72;;;;;;;0.04;100.00;95474.56;5076923;28;20090;-69
2024/01/19 04:10:51;;;;;;;3.10;2.90;;;;;;;0.03;100.00;95485.81;5083669;28;20032;-69
2024/01/19 04:13:17;;;;;;;3.35;3.15;;;;;;;0.02;100.00;95484.16;5076211;28;20021;-69
2024/01/19 04:15:42;;;;;;;3.00;2.80;;;;;;;-0.02;100.00;95490.41;5079678;28;20052;-69
2024/01/19 04:18:07;;;;;;;3.08;2.97;;;;;;;-0.02;100.00;95496.41;5084992;28;20020;-69
2024/01/19 04:20:33;;;;;;;3.55;3.35;;;;;;;0.07;100.00;95500.28;5088849;28;20119;-69
2024/01/19 04:22:58;;;;;;;3.60;3.40;;;;;;;0.10;100.00;95486.31;5095448;28;20063;-69
2024/01/19 04:25:24;;;;;;;3.70;3.40;;;;;;;0.02;100.00;95499.69;5091678;28;20028;-69
2024/01/19 04:27:49;;;;;;;3.85;3.55;;;;;;;-0.04;100.00;95492.22;5092109;28;20027;-69
2024/01/19 04:30:15;;;;;;;4.38;3.50;;;;;;;-0.06;100.00;95494.91;5093775;28;20031;-69
2024/01/19 04:32:40;;;;;;;3.42;3.22;;;;;;;-0.04;100.00;95493.09;5084783;28;20016;-68
2024/01/19 04:35:06;;;;;;;3.22;3.03;;;;;;;-0.09;100.00;95495.09;5089441;28;20060;-69
2024/01/19 04:37:31;;;;;;;3.50;3.30;;;;;;;-0.15;100.00;95496.25;5089996;28;20111;-67
2024/01/19 04:39:57;;;;;;;3.53;3.33;;;;;;;-0.11;100.00;95501.25;5092280;28;20095;-67
2024/01/19 04:42:22;;;;;;;4.63;4.22;;;;;;;-0.17;100.00;95494.63;5071873;28;20027;-68
2024/01/19 04:44:47;;;;;;;3.78;3.42;;;;;;;-0.17;100.00;95498.06;5081855;28;20085;-68
2024/01/19 04:47:13;;;;;;;3.80;3.60;;;;;;;-0.20;100.00;95503.41;5079520;28;20035;-69
2024/01/19 04:49:38;;;;;;;3.40;3.20;;;;;;;-0.23;100.00;95502.72;5087817;28;20417;-69
2024/01/19 04:52:03;;;;;;;3.42;3.22;;;;;;;-0.27;100.00;95511.56;5089222;28;20026;-69
2024/01/19 04:54:29;;;;;;;3.25;3.05;;;;;;;-0.27;100.00;95519.34;5085176;28;20097;-69
2024/01/19 04:56:54;;;;;;;3.08;2.85;;;;;;;-0.21;100.00;95514.69;5088627;28;20059;-69
2024/01/19 04:59:20;;;;;;;3.25;3.05;;;;;;;-0.17;100.00;95528.28;5082032;28;20024;-69
2024/01/19 05:01:45;;;;;;;3.40;3.20;;;;;;;-0.26;100.00;95528.78;5088269;28;20020;-69
2024/01/19 05:04:10;;;;;;;3.17;2.97;;;;;;;-0.27;100.00;95527.91;5081038;28;20031;-68
2024/01/19 05:06:36;;;;;;;3.15;2.95;;;;;;;-0.25;100.00;95545.97;5091841;28;20031;-69
2024/01/19 05:09:01;;;;;;;3.40;3.20;;;;;;;-0.34;100.00;95542.09;5094318;28;20026;-69
2024/01/19 05:11:27;;;;;;;3.67;3.38;;;;;;;-0.32;100.00;95540.25;5088533;28;20020;-69
2024/01/19 05:13:52;;;;;;;4.20;3.22;;;;;;;-0.29;100.00;95553.03;5076209;28;20102;-69
2024/01/19 05:16:17;;;;;;;3.95;3.58;;;;;;;-0.37;100.00;95553.44;5089816;28;20020;-69
2024/01/19 05:18:43;;;;;;;4.70;3.80;;;;;;;-0.35;100.00;95550.78;5068818;28;20016;-69
2024/01/19 05:21:08;;;;;;;3.67;3.47;;;;;;;-0.39;100.00;95555.25;5091739;28;20570;-69
2024/01/19 05:23:33;;;;;;;4.20;3.90;;;;;;;-0.39;100.00;95550.09;5090960;28;20035;-69
2024/01/19 05:26:01;;;;;;;3.55;3.25;;;;;;;-0.36;100.00;95542.16;5093034;28;20489;-69
2024/01/19 05:28:26;;;;;;;3.35;3.15;;;;;;;-0.43;100.00;95548.56;5085989;28;20020;-69
2024/01/19 05:30:52;;;;;;;3.20;3.00;;;;;;;-0.40;100.00;95548.41;5068222;28;20102;-69
2024/01/19 05:33:17;;;;;;;3.55;3.22;;;;;;;-0.43;100.00;95551.16;5086281;28;20016;-68
2024/01/19 05:35:43;;;;;;;3.63;3.35;;;;;;;-0.41;100.00;95551.91;5083618;28;20056;-69
2024/01/19 05:38:08;;;;;;;6.95;6.18;;;;;;;-0.37;100.00;95553.44;5080435;28;20104;-69
2024/01/19 05:40:33;;;;;;;4.80;4.40;;;;;;;-0.39;100.00;95560.44;5075467;28;20076;-69
2024/01/19 05:42:59;;;;;;;3.45;3.25;;;;;;;-0.39;100.00;95568.19;5089594;28;20388;-69
2024/01/19 05:45:24;;;;;;;3.05;2.85;;;;;;;-0.43;100.00;95582.19;5081064;28;20523;-69
2024/01/19 05:47:50;;;;;;;5.38;2.53;;;;;;;-0.46;100.00;95582.38;5066067;28;20100;-69
2024/01/19 05:50:15;;;;;;;2.47;2.38;;;;;;;-0.34;100.00;95597.25;5086380;28;20430;-69
2024/01/19 05:52:40;;;;;;;2.92;2.72;;;;;;;-0.34;100.00;95594.66;5083855;28;20030;-69
2024/01/19 05:55:08;;;;;;;3.50;3.03;;;;;;;-0.34;100.00;95593.84;5090722;28;20031;-69
2024/01/19 05:57:33;;;;;;;3.20;3.00;;;;;;;-0.32;100.00;95585.09;5082579;28;20539;-69
2024/01/19 05:59:59;;;;;;;4.57;4.28;;;;;;;-0.27;100.00;95595.19;5091349;28;20025;-68
2024/01/19 06:02:24;;;;;;;3.45;3.25;;;;;;;-0.20;100.00;95611.25;5087619;28;20063;-69
2024/01/19 06:04:50;;;;;;;3.42;3.15;;;;;;;-0.24;100.00;95620.09;5083021;28;20024;-69
2024/01/19 06:07:15;;;;;;;3.00;2.83;;;;;;;-0.30;100.00;95619.50;5091268;28;20020;-69
2024/01/19 06:09:40;;;;;;;3.13;2.97;;;;;;;-0.35;100.00;95612.88;5097447;28;20046;-69
2024/01/19 06:12:06;;;;;;;3.05;2.80;;;;;;;-0.36;100.00;95619.78;5082555;28;20036;-69
2024/01/19 06:14:31;;;;;;;2.25;2.15;;;;;;;-0.29;100.00;95633.25;5081993;28;20028;-69
2024/01/19 06:16:57;;;;;;;3.22;3.03;;;;;;;-0.45;100.00;95644.34;5085306;28;20012;-69
2024/01/19 06:19:22;;;;;;;3.30;3.10;;;;;;;-0.46;100.00;95637.50;5087621;28;20038;-69
2024/01/19 06:21:48;;;;;;;3.25;3.05;;;;;;;-0.56;100.00;95632.84;5093898;28;20133;-69
2024/01/19 06:24:17;;;;;;;3.05;2.85;;;;;;;-0.48;100.00;95635.94;5093900;28;20012;-68
2024/01/19 06:26:47;;;;;;;2.78;2.58;;;;;;;-0.48;100.00;95656.63;5087389;28;20028;-69
2024/01/19 06:29:12;;;;;;;2.78;2.65;;;;;;;-0.58;100.00;95659.63;5085928;28;20029;-69
2024/01/19 06:31:48;;;;;;;3.05;2.85;;;;;;;-0.59;100.00;95660.53;5084294;28;20080;-69
2024/01/19 06:34:13;;;;;;;;;;;;;;;-0.58;100.00;95662.22;5083593;28;20024;-68
2024/01/19 06:36:42;;;;;;;;;;;;;;;-0.67;100.00;95667.00;5088720;28;19935;-69
2024/01/19 06:39:07;;;;;;;4.00;3.80;;;;;;;-0.59;100.00;95678.66;5089032;28;19915;-70
2024/01/19 06:41:34;;;;;;;2.80;2.70;;;;;;;-0.65;100.00;95688.47;5084103;28;20020;-69
2024/01/19 06:43:59;;;;;;;4.53;4.10;;;;;;;-0.54;100.00;95681.03;5092566;28;20058;-68
2024/01/19 06:46:24;;;;;;;3.40;3.20;;;;;;;-0.54;100.00;95688.78;5090765;28;20044;-68
2024/01/19 06:48:50;;;;;;;2.70;2.60;;;;;;;-0.63;100.00;95699.59;5083390;28;20024;-69
2024/01/19 06:51:20;;;;;;;2.65;2.55;;;;;;;-0.76;100.00;95704.50;5085836;28;20034;-68
2024/01/19 06:53:45;;;;;;;3.40;3.20;;;;;;;-0.72;100.00;95704.25;5085423;28;20507;-68
2024/01/19 06:56:11;;;;;;;4.20;3.90;;;;;;;-0.66;100.00;95717.84;5095106;28;20027;-68
2024/01/19 06:58:37;;;;;;;2.97;2.78;;;;;;;-0.72;100.00;95713.78;5087082;28;20509;-68
2024/01/19 07:01:02;;;;;;;3.20;3.00;;;;;;;-0.75;100.00;95719.09;5085092;28;20123;-69
2024/01/19 07:03:28;;;;;;;2.92;2.80;;;;;;;-0.71;100.00;95730.97;5085456;28;20043;-69
2024/01/19 07:05:53;;;;;;;3.03;2.92;;;;;;;-0.73;100.00;95725.84;5089175;28;20280;-68
2024/01/19 07:08:19;;;;;;;12.15;8.35;;;;;;;-0.77;100.00;95737.25;5083311;28;20020;-69
2024/01/19 07:10:44;;;;;;;9.73;8.55;;;;;;;-0.79;100.00;95748.56;5086876;28;20026;-68
2024/01/19 07:13:09;;;;;;;5.85;5.35;;;;;;;-0.69;100.00;95757.59;5086893;28;20116;-70
2024/01/19 07:15:35;;;;;;;4.47;4.07;;;;;;;-0.71;100.00;95751.66;5083929;28;20021;-70
2024/01/19 07:18:00;;;;;;;3.15;2.97;;;;;;;-0.50;100.00;95760.13;5060399;28;20548;-67
2024/01/19 07:20:26;;;;;;;4.63;4.22;;;;;;;-0.59;100.00;95763.16;5084962;28;20057;-70
2024/01/19 07:22:53;;;;;;;4.90;4.50;;;;;;;-0.54;100.00;95771.53;5103015;28;20052;-69
2024/01/19 07:25:18;;;;;;;6.32;5.82;;;;;;;-0.52;100.00;95768.91;5087084;28;20025;-69
2024/01/19 07:27:43;;;;;;;3.60;3.40;;;;;;;-0.60;100.00;95769.25;5083770;28;20030;-69
2024/01/19 07:30:09;;;;;;;5.15;4.85;;;;;;;-0.53;100.00;95780.97;5098431;28;20024;-69
2024/01/19 07:32:34;;;;;;;5.80;5.30;;;;;;;-0.48;100.00;95788.53;5083517;28;20047;-69
2024/01/19 07:35:00;;;;;;;7.50;6.90;;;;;;;-0.49;100.00;95790.28;5076003;28;20414;-69
2024/01/19 07:37:25;;;;;;;5.75;5.25;;;;;;;-0.60;100.00;95785.59;5081821;28;20477;-67
2024/01/19 07:39:50;;;;;;;5.07;4.68;;;;;;;-0.58;100.00;95793.28;5095314;28;20023;-68
2024/01/19 07:42:16;;;;;;;5.53;5.03;;;;;;;-0.65;100.00;95792.75;5068623;28;20035;-69
2024/01/19 07:44:41;;;;;;;4.20;3.95;;;;;;;-0.81;100.00;95797.78;5088869;28;20067;-68
2024/01/19 07:47:07;;;;;;;4.57;4.18;;;;;;;-0.81;100.00;95791.75;5084863;28;20388;-68
2024/01/19 07:49:32;;;;;;;4.13;3.75;;;;;;;-0.89;100.00;95794.69;5092213;28;20020;-69
2024/01/19 07:51:57;;;;;;;5.50;5.10;;;;;;;-0.90;100.00;95798.19;5089934;28;20020;-68
2024/01/19 07:54:23;;;;;;;28.00;25.25;;;;;;;-0.92;100.00;95795.69;5091954;28;20046;-67
2024/01/19 07:56:48;;;;;;;12.77;11.38;;;;;;;-0.77;100.00;95798.50;5089239;28;20023;-67
2024/01/19 07:59:14;;;;;;;11.88;10.65;;;;;;;-0.83;100.00;95798.75;5086553;28;20031;-67
2024/01/19 08:01:39;;;;;;;13.10;11.75;;;;;;;-0.70;100.00;95809.38;5103917;28;20418;-67
2024/01/19 08:04:05;;;;;;;14.10;11.25;;;;;;;-0.79;100.00;95797.69;5083591;28;20024;-67
2024/01/19 08:06:30;;;;;;;20.50;18.27;;;;;;;-0.73;100.00;95812.94;5075045;28;20075;-66
2024/01/19 08:08:56;;;;;;;12.45;11.15;;;;;;;-0.65;100.00;95813.44;5096767;28;20037;-67
2024/01/19 08:11:21;;;;;;;4.75;4.35;;;;;;;-0.81;100.00;95817.59;5087001;28;20028;-67
2024/01/19 08:13:47;;;;;;;8.75;7.85;;;;;;;-0.70;100.00;95819.72;5064732;28;20028;-67
2024/01/19 08:16:12;;;;;;;6.82;6.18;;;;;;;-0.62;100.00;95815.03;5083131;28;20449;-67
2024/01/19 08:18:38;;;;;;;7.30;6.68;;;;;;;-0.50;100.00;95821.41;5076611;28;20028;-67
2024/01/19 08:21:04;;;;;;;6.25;5.68;;;;;;;-0.44;100.00;95827.13;5102052;28;20103;-67
2024/01/19 08:23:30;;;;;;;5.45;5.05;;;;;;;-0.53;100.00;95827.53;5092343;28;20553;-68
2024/01/19 08:25:56;;;;;;;7.38;6.68;;;;;;;-0.56;100.00;95830.28;5089203;28;20019;-68
2024/01/19 08:28:22;;;;;;;5.85;5.30;;;;;;;-0.45;100.00;95840.13;5102816;28;20016;-68
2024/01/19 08:30:48;;;;;;;7.28;6.57;;;;;;;-0.64;100.00;95843.53;5095746;28;20040;-68
2024/01/19 08:33:13;;;;;;;7.57;6.97;;;;;;;-0.58;100.00;95845.84;5095714;28;20103;-68
2024/01/19 08:35:39;;;;;;;7.13;6.43;;;;;;;-0.55;100.00;95850.06;5088167;28;20068;-68
2024/01/19 08:38:04;;;;;;;8.90;7.93;;;;;;;-0.59;100.00;95841.59;5076640;28;20036;-68
2024/01/19 08:40:30;;;;;;;6.95;5.53;;;;;;;-0.66;100.00;95853.13;5087904;28;20032;-68
2024/01/19 08:42:56;;;;;;;8.07;7.05;;;;;;;-0.70;100.00;95856.75;5098553;28;20028;-68
2024/01/19 08:45:21;;;;;;;7.15;6.55;;;;;;;-0.57;100.00;95857.03;5073543;28;20038;-68
2024/01/19 08:47:50;;;;;;;8.40;7.60;;;;;;;-0.53;100.00;95862.94;5095115;28;20076;-68
2024/01/19 08:50:16;;;;;;;7.28;6.57;;;;;;;-0.56;100.00;95863.03;5100080;28;20448;-68
2024/01/19 08:52:42;;;;;;;6.93;5.75;;;;;;;-0.54;100.00;95872.41;5102565;28;20038;-68
2024/01/19 08:55:07;;;;;;;6.72;6.13;;;;;;;-0.47;100.00;95867.81;5091239;28;20091;-68
2024/01/19 08:57:33;;;;;;;9.25;7.70;;;;;;;-0.47;100.00;95876.41;5093696;28;20582;-68
2024/01/19 08:59:59;;;;;;;10.15;9.00;;;;;;;-0.50;100.00;95880.88;5068767;28;20035;-69
2024/01/19 09:02:24;;;;;;;14.38;9.88;;;;;;;-0.58;100.00;95886.41;5086604;28;20063;-68
2024/01/19 09:04:50;;;;;;;31.33;20.98;;;;;;;-0.54;100.00;95902.63;5092941;28;20036;-68
2024/01/19 09:07:15;;;;;;;21.35;15.80;;;;;;;-0.54;100.00;95902.63;5086008;28;20024;-68
2024/01/19 09:09:41;;;;;;;7.63;6.93;;;;;;;-0.47;100.00;95911.78;5093066;28;20055;-68
2024/01/19 09:12:07;;;;;;;9.23;8.20;;;;;;;-0.48;100.00;95923.03;5091613;28;20060;-69
2024/01/19 09:14:32;;;;;;;7.18;6.57;;;;;;;-0.51;100.00;95911.06;5085317;28;20031;-69
2024/01/19 09:16:58;;;;;;;4.95;4.45;;;;;;;-0.53;100.00;95912.06;5073450;28;20020;-68
2024/01/19 09:19:24;;;;;;;4.25;3.83;;;;;;;-0.54;100.00;95913.81;5096600;28;20127;-68
2024/01/19 09:21:50;;;;;;;4.65;3.72;;;;;;;-0.38;100.00;95921.72;5088112;28;20058;-68
2024/01/19 09:24:17;;;;;;;5.10;4.10;;;;;;;-0.53;100.00;95914.66;5085380;28;20032;-68
2024/01/19 09:26:42;;;;;;;3.45;3.15;;;;;;;-0.49;100.00;95936.88;5089498;28;20031;-69
2024/01/19 09:29:10;;;;;;;3.75;3.55;;;;;;;-0.42;100.00;95917.59;5086024;28;20028;-69
2024/01/19 09:31:46;;;;;;;3.63;3.35;;;;;;;-0.47;100.00;95919.56;5091193;28;20085;-69
2024/01/19 09:34:12;;;;;;;4.45;4.07;;;;;;;-0.45;100.00;95939.25;5096300;28;20236;-69
2024/01/19 09:36:38;;;;;;;3.65;3.35;;;;;;;-0.31;100.00;95933.47;5094453;28;20058;-69
2024/01/19 09:39:04;;;;;;;4.03;3.67;;;;;;;-0.38;100.00;95939.81;5093686;28;20032;-69
2024/01/19 09:41:52;;;;;;;3.72;3.42;;;;;;;-0.37;100.00;95946.66;5092826;28;20472;-68
2024/01/19 09:44:19;;;;;;;4.13;3.83;;;;;;;-0.38;100.00;95944.16;5097217;28;20032;-69
2024/01/19 09:46:51;;;;;;;4.85;4.30;;;;;;;-0.46;100.00;95931.56;5081301;28;20090;-69
2024/01/19 09:49:31;;;;;;;4.03;3.72;;;;;;;-0.37;100.00;95943.25;5087729;28;20046;-69
2024/01/19 09:52:02;;;;;;;3.95;3.53;;;;;;;-0.42;100.00;95952.97;5097116;28;20020;-69
2024/01/19 09:54:33;;;;;;;4.78;4.38;;;;;;;-0.47;100.00;95971.28;5090702;28;20030;-69
2024/01/19 09:57:02;;;;;;;4.15;3.72;;;;;;;-0.45;100.00;95967.69;5094338;28;20039;-69
2024/01/19 09:59:33;;;;;;;6.00;4.35;;;;;;;-0.44;100.00;95971.16;5098548;28;20488;-69
2024/01/19 10:02:00;;;;;;;4.15;3.70;;;;;;;-0.39;100.00;95974.38;5081649;28;20027;-69
2024/01/19 10:04:26;;;;;;;10.43;8.02;;;;;;;-0.38;100.00;95973.44;5094503;28;20024;-69
2024/01/19 10:06:53;;;;;;;5.60;5.07;;;;;;;-0.42;100.00;95973.69;5079174;28;20021;-69
2024/01/19 10:09:20;;;;;;;6.82;6.25;;;;;;;-0.39;100.00;95976.13;5083923;28;20454;-69
2024/01/19 10:11:54;;;;;;;4.55;4.13;;;;;;;-0.44;100.00;95971.16;5093903;28;20239;-68
2024/01/19 10:14:21;;;;;;;7.67;6.90;;;;;;;-0.37;100.00;95967.38;5079268;28;20016;-68
2024/01/19 10:16:52;;;;;;;9.50;7.13;;;;;;;-0.46;100.00;95970.38;5078710;28;20035;-69
2024/01/19 10:19:21;;;;;;;5.93;5.38;;;;;;;-0.47;100.00;95958.34;5093954;28;20400;-68
2024/01/19 10:21:47;;;;;;;5.80;5.20;;;;;;;-0.53;100.00;95956.03;5083934;28;20166;-69
2024/01/19 10:24:20;;;;;;;9.23;7.88;;;;;;;-0.54;100.00;95954.38;5086655;28;20019;-69
2024/01/19 10:26:55;;;;;;;8.35;7.53;;;;;;;-0.39;100.00;95951.06;5090012;28;20028;-69
2024/01/19 10:29:22;;;;;;;7.07;5.50;;;;;;;-0.33;100.00;95950.81;5090864;28;20056;-69
2024/01/19 10:31:51;;;;;;;4.50;4.10;;;;;;;-0.25;100.00;95937.53;5088134;28;20028;-69
2024/01/19 10:34:24;;;;;;;3.88;3.63;;;;;;;-0.30;100.00;95934.31;5077843;28;20028;-69
2024/01/19 10:36:51;;;;;;;6.68;5.80;;;;;;;-0.31;100.00;95941.25;5089779;28;20028;-69
2024/01/19 10:39:16;;;;;;;10.10;9.10;;;;;;;-0.21;100.00;95939.09;5091498;28;20055;-68
2024/01/19 10:41:42;;;;;;;6.07;5.57;;;;;;;-0.18;100.00;95938.09;5090089;28;20691;-68
2024/01/19 10:44:11;;;;;;;5.65;5.15;;;;;;;-0.21;100.00;95936.50;5080925;28;20028;-68
2024/01/19 10:46:37;;;;;;;6.75;6.15;;;;;;;-0.33;100.00;95940.47;5089160;28;20047;-69
2024/01/19 10:49:04;;;;;;;5.53;4.93;;;;;;;-0.37;100.00;95932.91;5092521;28;20028;-69
2024/01/19 10:51:30;;;;;;;6.85;5.18;;;;;;;-0.41;100.00;95932.19;5090770;28;20118;-69
2024/01/19 10:54:02;;;;;;;7.38;4.13;;;;;;;-0.26;100.00;95942.78;5087708;28;20369;-69
2024/01/19 10:56:28;;;;;;;4.15;3.78;;;;;;;-0.21;100.00;95946.84;5096856;28;20055;-69
2024/01/19 10:58:53;;;;;;;4.22;3.67;;;;;;;-0.20;100.00;95942.50;5092519;28;20020;-68
2024/01/19 11:01:18;;;;;;;6.10;4.35;;;;;;;-0.35;100.00;95936.28;5103461;28;20019;-69
2024/01/19 11:03:44;;;;;;;3.92;3.45;;;;;;;-0.44;100.00;95940.97;5087382;28;20049;-68
2024/01/19 11:06:10;;;;;;;6.20;4.10;;;;;;;-0.37;100.00;95951.03;5094642;28;20028;-69
2024/01/19 11:08:37;;;;;;;8.90;5.20;;;;;;;-0.40;100.00;95949.41;5094076;28;20104;-69
2024/01/19 11:11:06;;;;;;;4.45;4.05;;;;;;;-0.35;100.00;95954.38;5092151;28;20472;-69
2024/01/19 11:13:38;;;;;;;12.52;11.25;;;;;;;-0.42;100.00;95948.63;5086996;28;20107;-69
2024/01/19 11:16:13;;;;;;;6.68;6.10;;;;;;;-0.40;100.00;95956.34;5086517;28;20374;-69
2024/01/19 11:18:39;;;;;;;8.52;5.53;;;;;;;-0.26;100.00;95960.91;5093033;28;20376;-69
2024/01/19 11:21:06;;;;;;;9.77;5.57;;;;;;;-0.31;100.00;95959.34;5093228;28;20102;-68
2024/01/19 11:23:33;;;;;;;6.07;5.47;;;;;;;-0.23;100.00;95963.34;5086210;28;20048;-69